Flight Track Log - Related Links

Times and Time Zones

All times are in EDT time to prevent confusion due to time zone crossing. See the ELJ95 flight status page for this flight to view local times or setup timezone preferences in your user account.

Time Position Orientation Groundspeed Altitude Reporting Facility
EDT Latitude Longitude Course Direction KTS MPH feet Rate Location/Type
Tue 05:09:58 PM 37.8125 -80.4392 213° Southwest 443 510 5,100  Level Washington Center
Tue 05:10:56 PM 37.7628 -80.4806 219° Southwest 339 390 8,300 3,681 Climbing Washington Center
Tue 05:11:57 PM 37.7042 -80.5397 247° West 296 341 12,400 3,415 Climbing Washington Center
Tue 05:14:11 PM 37.6281 -80.7694 252° West 296 341 19,400 2,351 Climbing Indianapolis Center
Tue 05:15:11 PM 37.5975 -80.8886 253° West 332 382 20,000 867 Climbing Indianapolis Center
Tue 05:17:11 PM 37.5342 -81.1447 254° West 400 460 22,000 667 Climbing Indianapolis Center
Tue 05:18:11 PM 37.5036 -81.2819 243° Southwest 405 466 22,000  Level Indianapolis Center
Tue 05:19:11 PM 37.4517 -81.4092 232° Southwest 405 466 22,000  Level Indianapolis Center
Tue 05:20:11 PM 37.3828 -81.5183 233° Southwest 412 474 22,000  Level Indianapolis Center
Tue 05:22:04 PM 37.2442 -81.7472 233° Southwest 410 472 22,000  Level Atlanta Center
Tue 05:23:04 PM 37.1753 -81.8611 232° Southwest 410 472 22,000  Level Atlanta Center
Tue 05:24:04 PM 37.1086 -81.9697 233° Southwest 410 472 22,000  Level Atlanta Center
Tue 05:25:04 PM 37.0394 -82.0833 233° Southwest 410 472 22,000  Level Atlanta Center
Tue 05:26:04 PM 36.9783 -82.1836 233° Southwest 410 472 22,000  Level Atlanta Center
Tue 05:27:04 PM 36.9114 -82.2942 233° Southwest 404 465 22,000  Level Atlanta Center
Tue 05:28:04 PM 36.8419 -82.4072 231° Southwest 409 471 22,000  Level Atlanta Center
Tue 05:29:04 PM 36.7725 -82.5150 233° Southwest 404 465 22,000  Level Atlanta Center
Tue 05:30:04 PM 36.7050 -82.6250 233° Southwest 404 465 22,000 -793 Level Atlanta Center
Tue 05:31:05 PM 36.6375 -82.7375 231° Southwest 404 465 20,400 -1,700 Descending Atlanta Center
Tue 05:32:04 PM 36.5697 -82.8419 233° Southwest 404 465 18,600 -1,815 Descending Atlanta Center
Tue 05:33:04 PM 36.4978 -82.9592 232° Southwest 399 459 16,800 -1,785 Descending Atlanta Center
Tue 05:34:05 PM 36.4339 -83.0608 233° Southwest 394 453 15,000 -1,700 Descending Atlanta Center
Tue 05:35:04 PM 36.3764 -83.1542 232° Southwest 371 427 13,400 -1,563 Descending Atlanta Center
Tue 05:36:04 PM 36.3164 -83.2503 231° Southwest 358 412 11,900 -1,200 Descending Atlanta Center
Tue 05:37:04 PM 36.2544 -83.3461 233° Southwest 358 412 11,000 -650 Descending Atlanta Center
Tue 05:38:04 PM 36.2008 -83.4342 231° Southwest 346 398 10,600 -750 Descending Atlanta Center
Tue 05:39:04 PM 36.1553 -83.5039 233° Southwest 295 339 9,500 -1,450 Descending Atlanta Center
Tue 05:40:04 PM 36.1178 -83.5658 234° Southwest 265 305 7,700 -1,900 Descending Atlanta Center
Tue 05:41:04 PM 36.0786 -83.6328 230° Southwest 255 293 5,700 -1,850 Descending Atlanta Center
Tue 05:42:04 PM 36.0347 -83.6972 232° Southwest 255 293 4,000 -843 Descending Atlanta Center
Tue 05:43:05 PM 35.9933 -83.7617 231° Southwest 250 288 4,000 -150 Level Atlanta Center
Tue 05:44:04 PM 35.9517 -83.8258 231° Southwest 255 293 3,700 -305 Descending Atlanta Center

Login

Don't have an account? Register now (free) for customized features, flight alerts, and more!